createdAt,value
2018-09-18T00:00:03.926Z,60.29
2018-09-18T00:02:31.768Z,63.49
2018-09-18T00:04:59.567Z,63.14
2018-09-18T00:07:27.322Z,69.00
2018-09-18T00:09:55.165Z,66.53
2018-09-18T00:12:22.959Z,63.51
2018-09-18T00:14:50.807Z,66.03
2018-09-18T00:17:18.646Z,68.32
2018-09-18T00:19:46.492Z,68.51
2018-09-18T00:22:14.307Z,68.25
2018-09-18T00:24:42.135Z,70.81
2018-09-18T00:27:09.969Z,71.57
2018-09-18T00:29:37.744Z,71.81
2018-09-18T00:32:05.758Z,67.90
2018-09-18T00:34:33.627Z,65.39
2018-09-18T00:37:09.465Z,63.85
2018-09-18T00:39:38.262Z,63.49
2018-09-18T00:42:06.147Z,63.44
2018-09-18T00:44:33.984Z,64.16
2018-09-18T00:47:01.769Z,64.01
2018-09-18T00:49:30.495Z,64.70
2018-09-18T00:51:58.356Z,66.54
2018-09-18T00:54:29.747Z,70.92
2018-09-18T00:57:03.547Z,72.24
2018-09-18T00:59:39.482Z,73.51
2018-09-18T01:02:11.522Z,68.09
2018-09-18T01:04:46.366Z,68.74
2018-09-18T01:07:22.713Z,69.58
2018-09-18T01:09:57.143Z,68.22
2018-09-18T01:12:25.636Z,66.78
2018-09-18T01:14:57.288Z,65.80
2018-09-18T01:17:25.683Z,65.68
2018-09-18T01:19:53.528Z,67.26
2018-09-18T01:22:21.846Z,66.08
2018-09-18T01:24:50.672Z,65.25
2018-09-18T01:27:18.440Z,66.47
2018-09-18T01:29:46.179Z,65.40
2018-09-18T01:32:14.090Z,65.93
2018-09-18T01:34:42.825Z,65.90
2018-09-18T01:37:10.659Z,66.47
2018-09-18T01:39:38.438Z,66.40
2018-09-18T01:42:06.273Z,68.98
2018-09-18T01:44:35.585Z,66.63
2018-09-18T01:47:03.498Z,67.24
2018-09-18T01:49:31.336Z,67.27
2018-09-18T01:52:03.604Z,66.52
2018-09-18T01:54:31.389Z,66.06
2018-09-18T01:57:02.076Z,67.60
2018-09-18T01:59:32.930Z,66.63
2018-09-18T02:02:05.766Z,67.11
2018-09-18T02:04:33.636Z,71.28
2018-09-18T02:07:01.513Z,69.83
2018-09-18T02:09:29.294Z,72.21
2018-09-18T02:12:05.065Z,73.23
2018-09-18T02:14:33.146Z,74.48
2018-09-18T02:17:00.986Z,70.15
2018-09-18T02:19:28.791Z,72.47
2018-09-18T02:21:56.657Z,71.95
2018-09-18T02:24:24.966Z,72.50
2018-09-18T02:26:52.767Z,69.55
2018-09-18T02:29:20.795Z,68.97
2018-09-18T02:31:48.920Z,70.88
2018-09-18T02:34:17.176Z,68.14
2018-09-18T02:36:45.048Z,68.67
2018-09-18T02:39:15.157Z,67.73
2018-09-18T02:41:43.504Z,67.21
2018-09-18T02:44:11.411Z,68.28
2018-09-18T02:46:39.237Z,67.58
2018-09-18T02:49:07.204Z,72.55
2018-09-18T02:51:34.967Z,68.53
2018-09-18T02:54:02.783Z,67.98
2018-09-18T02:56:30.658Z,68.34
2018-09-18T02:58:58.465Z,68.14
2018-09-18T03:01:26.214Z,67.98
2018-09-18T03:03:54.044Z,68.40
2018-09-18T03:06:21.930Z,68.58
2018-09-18T03:08:49.754Z,68.79
2018-09-18T03:11:17.627Z,68.90
2018-09-18T03:13:45.346Z,69.17
2018-09-18T03:16:13.160Z,68.71
2018-09-18T03:18:40.967Z,68.75
2018-09-18T03:21:08.833Z,70.00
2018-09-18T03:23:36.579Z,69.89
2018-09-18T03:26:04.468Z,69.45
2018-09-18T03:28:32.212Z,69.39
2018-09-18T03:30:59.959Z,70.23
2018-09-18T03:33:27.762Z,70.75
2018-09-18T03:35:55.548Z,70.77
2018-09-18T03:38:23.363Z,70.63
2018-09-18T03:40:51.144Z,70.79
2018-09-18T03:43:18.911Z,70.54
2018-09-18T03:45:46.723Z,75.21
2018-09-18T03:48:14.504Z,71.27
2018-09-18T03:50:42.308Z,70.45
2018-09-18T03:53:10.183Z,71.65
2018-09-18T03:55:38.703Z,72.26
2018-09-18T03:58:06.585Z,72.74
2018-09-18T04:00:34.333Z,71.87
2018-09-18T04:03:02.134Z,71.90
2018-09-18T04:05:30.002Z,72.74
2018-09-18T04:07:57.831Z,75.62
2018-09-18T04:10:25.651Z,73.49
2018-09-18T04:12:53.500Z,72.98
2018-09-18T04:15:21.315Z,73.16
2018-09-18T04:17:49.116Z,72.01
2018-09-18T04:20:16.937Z,72.87
2018-09-18T04:22:44.676Z,72.83
2018-09-18T04:25:12.540Z,71.44
2018-09-18T04:27:40.361Z,72.09
2018-09-18T04:30:08.263Z,72.15
2018-09-18T04:32:36.119Z,72.86
2018-09-18T04:35:04.044Z,73.99
2018-09-18T04:37:31.931Z,73.64
2018-09-18T04:39:59.767Z,75.56
2018-09-18T04:42:27.619Z,76.56
2018-09-18T04:44:55.399Z,74.19
2018-09-18T04:47:23.157Z,75.75
2018-09-18T04:49:52.830Z,75.60
2018-09-18T04:52:20.868Z,73.86
2018-09-18T04:54:48.611Z,74.61
2018-09-18T04:57:16.434Z,74.28
2018-09-18T04:59:44.299Z,72.51
2018-09-18T05:02:12.168Z,74.14
2018-09-18T05:04:39.947Z,74.50
2018-09-18T05:07:07.787Z,74.20
2018-09-18T05:09:35.555Z,73.43
2018-09-18T05:12:03.970Z,73.42
2018-09-18T05:14:31.691Z,73.29
2018-09-18T05:16:59.487Z,72.98
2018-09-18T05:19:27.292Z,73.92
2018-09-18T05:21:55.516Z,74.18
2018-09-18T05:24:23.498Z,74.14
2018-09-18T05:26:51.283Z,73.27
2018-09-18T05:29:19.142Z,73.67
2018-09-18T05:31:46.876Z,74.11
2018-09-18T05:34:14.696Z,74.46
2018-09-18T05:36:42.560Z,74.92
2018-09-18T05:39:11.255Z,74.23
2018-09-18T05:41:39.256Z,73.64
2018-09-18T05:44:07.339Z,73.86
2018-09-18T05:46:35.693Z,74.25
2018-09-18T05:49:03.536Z,74.61
2018-09-18T05:51:31.376Z,73.83
2018-09-18T05:53:59.148Z,74.32
2018-09-18T05:56:27.083Z,74.45
2018-09-18T05:58:54.917Z,76.38
2018-09-18T06:01:22.728Z,77.02
2018-09-18T06:03:50.449Z,76.44
2018-09-18T06:06:18.223Z,76.58
2018-09-18T06:08:46.017Z,76.89
2018-09-18T06:11:13.842Z,76.50
2018-09-18T06:13:41.547Z,76.88
2018-09-18T06:16:09.642Z,76.23
2018-09-18T06:18:40.636Z,75.97
2018-09-18T06:21:08.718Z,75.82
2018-09-18T06:23:36.589Z,75.28
2018-09-18T06:26:04.505Z,75.23
2018-09-18T06:28:32.232Z,74.99
2018-09-18T06:31:00.012Z,75.00
2018-09-18T06:33:27.880Z,75.92
2018-09-18T06:35:55.740Z,75.24
2018-09-18T06:38:23.551Z,76.75
2018-09-18T06:40:51.387Z,76.92
2018-09-18T06:43:19.173Z,76.21
2018-09-18T06:45:47.124Z,76.48
2018-09-18T06:48:17.273Z,75.20
2018-09-18T06:50:45.143Z,75.73
2018-09-18T06:53:12.944Z,75.67
2018-09-18T06:55:40.781Z,74.94
2018-09-18T06:58:08.627Z,74.18
2018-09-18T07:00:36.436Z,74.00
2018-09-18T07:03:04.287Z,73.96
2018-09-18T07:05:32.146Z,73.51
2018-09-18T07:07:59.968Z,73.62
2018-09-18T07:10:27.819Z,73.11
2018-09-18T07:12:55.729Z,73.18
2018-09-18T07:15:23.609Z,73.33
2018-09-18T07:17:51.401Z,73.28
2018-09-18T07:20:19.268Z,73.27
2018-09-18T07:22:47.126Z,72.42
2018-09-18T07:25:14.918Z,72.44
2018-09-18T07:27:42.743Z,71.87
2018-09-18T07:30:10.523Z,71.93
2018-09-18T07:32:38.347Z,71.34
2018-09-18T07:35:06.426Z,71.15
2018-09-18T07:37:34.383Z,70.48
2018-09-18T07:40:02.212Z,70.56
2018-09-18T07:42:30.091Z,69.31
2018-09-18T07:44:57.938Z,68.40
2018-09-18T07:47:25.689Z,67.64
2018-09-18T07:49:53.456Z,67.64
2018-09-18T07:52:21.392Z,67.64
2018-09-18T07:54:49.148Z,67.49
2018-09-18T07:57:16.939Z,67.33
2018-09-18T07:59:44.768Z,66.74
2018-09-18T08:02:12.517Z,67.05
2018-09-18T08:04:40.387Z,66.69
2018-09-18T08:07:08.682Z,66.25
2018-09-18T08:09:36.572Z,65.61
2018-09-18T08:12:04.396Z,64.00
2018-09-18T08:14:32.149Z,64.56
2018-09-18T08:16:59.992Z,64.44
2018-09-18T08:19:27.908Z,63.60
2018-09-18T08:21:55.644Z,63.33
2018-09-18T08:24:23.462Z,62.26
2018-09-18T08:26:51.266Z,62.36
2018-09-18T08:29:19.099Z,59.67
2018-09-18T08:31:46.880Z,59.27
2018-09-18T08:34:14.668Z,60.22
2018-09-18T08:36:42.487Z,59.07
2018-09-18T08:39:10.327Z,58.33
2018-09-18T08:41:38.341Z,58.32
2018-09-18T08:44:06.106Z,55.86
2018-09-18T08:46:34.184Z,52.71
2018-09-18T08:49:02.044Z,53.18
2018-09-18T08:51:29.757Z,53.66
2018-09-18T08:53:57.551Z,55.15
2018-09-18T08:56:25.309Z,55.53
2018-09-18T08:58:53.223Z,54.05
2018-09-18T09:01:21.069Z,51.94
2018-09-18T09:03:48.892Z,52.41
2018-09-18T09:06:16.573Z,50.60
2018-09-18T09:08:44.420Z,49.47
2018-09-18T09:11:12.210Z,50.87
2018-09-18T09:13:40.050Z,52.60
2018-09-18T09:16:07.828Z,52.02
2018-09-18T09:18:37.752Z,50.89
2018-09-18T09:21:05.592Z,51.00
2018-09-18T09:23:33.346Z,50.65
2018-09-18T09:26:01.181Z,51.20
2018-09-18T09:28:29.104Z,48.96
2018-09-18T09:30:57.094Z,48.09
2018-09-18T09:33:24.905Z,48.24
2018-09-18T09:35:52.642Z,49.07
2018-09-18T09:38:20.552Z,47.96
2018-09-18T09:40:48.442Z,47.64
2018-09-18T09:43:16.276Z,47.47
2018-09-18T09:45:44.116Z,46.52
2018-09-18T09:48:11.977Z,48.81
2018-09-18T09:50:39.775Z,48.95
2018-09-18T09:53:08.436Z,49.01
2018-09-18T09:55:36.242Z,47.63
2018-09-18T09:58:04.076Z,47.39
2018-09-18T10:00:37.485Z,47.76
2018-09-18T10:03:05.290Z,47.43
2018-09-18T10:05:33.068Z,47.09
2018-09-18T10:08:00.848Z,46.53
2018-09-18T10:10:28.692Z,45.46
2018-09-18T10:12:56.435Z,45.10
2018-09-18T10:15:24.277Z,44.70
2018-09-18T10:17:52.227Z,45.09
2018-09-18T10:20:19.916Z,44.54
2018-09-18T10:22:50.433Z,44.90
2018-09-18T10:25:18.390Z,45.19
2018-09-18T10:27:46.201Z,45.62
2018-09-18T10:30:13.973Z,43.68
2018-09-18T10:32:41.807Z,41.81
2018-09-18T10:35:09.578Z,41.83
2018-09-18T10:37:37.360Z,39.75
2018-09-18T10:40:05.331Z,38.80
2018-09-18T10:42:33.123Z,39.26
2018-09-18T10:45:00.991Z,36.86
2018-09-18T10:47:28.761Z,35.70
2018-09-18T10:49:56.606Z,36.09
2018-09-18T10:52:24.442Z,35.84
2018-09-18T10:54:52.269Z,35.88
2018-09-18T10:57:20.095Z,34.11
2018-09-18T10:59:47.939Z,33.17
2018-09-18T11:02:15.954Z,31.20
2018-09-18T11:04:43.619Z,32.87
2018-09-18T11:07:11.552Z,30.17
2018-09-18T11:09:39.188Z,31.78
2018-09-18T11:12:07.005Z,30.07
2018-09-18T11:14:34.842Z,29.98
2018-09-18T11:17:02.700Z,29.08
2018-09-18T11:19:30.435Z,28.17
2018-09-18T11:21:58.173Z,28.22
2018-09-18T11:24:26.008Z,29.68
2018-09-18T11:26:53.750Z,29.27
2018-09-18T11:29:21.529Z,27.18
2018-09-18T11:31:49.311Z,27.35
2018-09-18T11:34:17.142Z,26.97
2018-09-18T11:36:44.959Z,26.91
2018-09-18T11:39:12.687Z,28.60
2018-09-18T11:41:40.447Z,26.59
2018-09-18T11:44:08.383Z,26.58
2018-09-18T11:46:36.316Z,26.38
2018-09-18T11:49:04.147Z,27.84
2018-09-18T11:51:31.962Z,25.09
2018-09-18T11:54:04.722Z,25.71
2018-09-18T11:56:32.669Z,26.98
2018-09-18T11:59:00.421Z,26.84
2018-09-18T12:01:28.236Z,27.29
2018-09-18T12:03:56.131Z,25.29
2018-09-18T12:06:23.941Z,26.19
2018-09-18T12:08:51.801Z,27.92
2018-09-18T12:11:19.544Z,26.26
2018-09-18T12:13:47.560Z,28.08
2018-09-18T12:16:15.392Z,25.46
2018-09-18T12:18:43.260Z,25.54
2018-09-18T12:21:11.056Z,26.62
2018-09-18T12:23:39.134Z,24.94
2018-09-18T12:26:06.921Z,27.20
2018-09-18T12:28:34.776Z,26.24
2018-09-18T12:31:02.465Z,26.07
2018-09-18T12:33:30.221Z,25.68
2018-09-18T12:35:58.039Z,27.37
2018-09-18T12:38:25.924Z,28.30
2018-09-18T12:40:53.676Z,27.65
2018-09-18T12:43:21.524Z,28.58
2018-09-18T12:45:49.310Z,27.86
2018-09-18T12:48:17.957Z,28.11
2018-09-18T12:50:46.110Z,29.34
2018-09-18T12:53:13.925Z,28.12
2018-09-18T12:55:41.723Z,28.82
2018-09-18T12:58:09.524Z,29.15
2018-09-18T13:00:37.403Z,29.10
2018-09-18T13:03:06.125Z,29.27
2018-09-18T13:05:34.025Z,30.33
2018-09-18T13:08:02.166Z,30.43
2018-09-18T13:10:30.201Z,29.57
2018-09-18T13:12:57.944Z,30.95
2018-09-18T13:15:25.734Z,30.23
2018-09-18T13:17:53.578Z,30.20
2018-09-18T13:20:21.416Z,31.86
2018-09-18T13:22:50.233Z,31.14
2018-09-18T13:25:17.985Z,31.19
2018-09-18T13:27:45.862Z,30.50
2018-09-18T13:30:13.624Z,31.43
2018-09-18T13:32:41.477Z,31.41
2018-09-18T13:35:09.267Z,31.95
2018-09-18T13:37:37.072Z,33.20
2018-09-18T13:40:04.985Z,32.74
2018-09-18T13:42:32.887Z,31.08
2018-09-18T13:45:00.656Z,31.76
2018-09-18T13:47:28.499Z,32.63
2018-09-18T13:49:56.248Z,32.67
2018-09-18T13:52:25.747Z,32.98
2018-09-18T13:54:53.584Z,32.57
2018-09-18T13:57:21.521Z,32.27
2018-09-18T13:59:49.515Z,32.86
2018-09-18T14:02:17.555Z,33.30
2018-09-18T14:04:45.234Z,33.32
2018-09-18T14:07:13.697Z,33.18
2018-09-18T14:09:41.476Z,33.28
2018-09-18T14:12:09.355Z,33.86
2018-09-18T14:14:37.300Z,33.66
2018-09-18T14:17:05.076Z,33.21
2018-09-18T14:19:34.386Z,33.40
2018-09-18T14:22:06.386Z,33.60
2018-09-18T14:24:34.188Z,32.44
2018-09-18T14:27:02.044Z,32.87
2018-09-18T14:29:29.872Z,34.25
2018-09-18T14:31:57.612Z,32.99
2018-09-18T14:34:25.713Z,33.43
2018-09-18T14:36:53.804Z,33.57
2018-09-18T14:39:21.629Z,33.34
2018-09-18T14:41:49.447Z,33.95
2018-09-18T14:44:17.240Z,32.57
2018-09-18T14:46:45.104Z,32.83
2018-09-18T14:49:17.407Z,33.43
2018-09-18T14:51:45.342Z,33.28
2018-09-18T14:54:13.155Z,33.24
2018-09-18T14:56:40.975Z,33.26
2018-09-18T14:59:08.839Z,32.98
2018-09-18T15:01:36.719Z,32.70
2018-09-18T15:04:04.595Z,33.94
2018-09-18T15:06:32.412Z,34.24
2018-09-18T15:09:00.232Z,33.34
2018-09-18T15:11:28.064Z,33.64
2018-09-18T15:13:56.916Z,33.22
2018-09-18T15:16:24.719Z,33.46
2018-09-18T15:18:52.487Z,33.46
2018-09-18T15:21:20.279Z,33.22
2018-09-18T15:23:48.023Z,33.33
2018-09-18T15:26:15.944Z,34.50
2018-09-18T15:28:43.756Z,33.35
2018-09-18T15:31:11.472Z,33.27
2018-09-18T15:33:39.416Z,33.71
2018-09-18T15:36:07.179Z,34.01
2018-09-18T15:38:35.111Z,33.48
2018-09-18T15:41:02.955Z,33.19
2018-09-18T15:43:30.828Z,33.91
2018-09-18T15:45:58.786Z,33.74
2018-09-18T15:48:26.606Z,32.90
2018-09-18T15:50:54.390Z,34.44
2018-09-18T15:53:22.136Z,33.75
2018-09-18T15:55:49.963Z,33.34
2018-09-18T15:58:17.778Z,34.08
2018-09-18T16:00:45.646Z,34.22
2018-09-18T16:03:13.463Z,34.27
2018-09-18T16:05:41.236Z,33.28
2018-09-18T16:08:08.984Z,33.41
2018-09-18T16:10:36.767Z,34.28
2018-09-18T16:13:04.588Z,34.58
2018-09-18T16:18:00.221Z,33.41
2018-09-18T16:20:28.021Z,34.01
2018-09-18T16:22:55.827Z,34.26
2018-09-18T16:25:23.660Z,33.75
2018-09-18T16:27:51.522Z,33.82
2018-09-18T16:30:19.267Z,33.84
2018-09-18T16:32:47.018Z,33.49
2018-09-18T16:35:14.819Z,33.67
2018-09-18T16:37:42.637Z,33.36
2018-09-18T16:40:10.501Z,34.05
2018-09-18T16:42:40.662Z,33.78
2018-09-18T16:45:08.639Z,33.80
2018-09-18T16:47:36.467Z,33.69
2018-09-18T16:50:04.357Z,35.27
2018-09-18T16:52:32.125Z,34.30
2018-09-18T16:54:59.870Z,34.15
2018-09-18T16:57:27.635Z,34.87
2018-09-18T16:59:55.483Z,34.71
2018-09-18T17:02:23.372Z,35.33
2018-09-18T17:04:51.137Z,34.95
2018-09-18T17:07:18.939Z,35.48
2018-09-18T17:09:46.771Z,35.67
2018-09-18T17:12:14.615Z,35.58
2018-09-18T17:14:42.395Z,36.07
2018-09-18T17:17:10.086Z,36.39
2018-09-18T17:19:37.955Z,36.34
2018-09-18T17:22:05.744Z,36.60
2018-09-18T17:24:33.674Z,36.46
2018-09-18T17:27:01.522Z,36.58
2018-09-18T17:29:29.271Z,37.11
2018-09-18T17:31:57.056Z,37.65
2018-09-18T17:34:24.913Z,37.44
2018-09-18T17:36:52.592Z,37.53
2018-09-18T17:39:20.363Z,37.21
2018-09-18T17:41:48.229Z,37.50
2018-09-18T17:44:15.999Z,37.27
2018-09-18T17:46:43.751Z,37.80
2018-09-18T17:49:11.622Z,37.97
2018-09-18T17:51:39.329Z,38.39
2018-09-18T17:54:07.152Z,37.93
2018-09-18T17:56:34.996Z,38.43
2018-09-18T17:59:02.810Z,38.60
2018-09-18T18:01:30.639Z,38.48
2018-09-18T18:03:58.442Z,38.88
2018-09-18T18:06:26.272Z,38.83
2018-09-18T18:08:54.081Z,39.05
2018-09-18T18:11:22.126Z,39.81
2018-09-18T18:13:49.801Z,40.24
2018-09-18T18:16:17.521Z,39.80
2018-09-18T18:18:45.511Z,40.27
2018-09-18T18:21:13.313Z,40.61
2018-09-18T18:23:41.204Z,40.25
2018-09-18T18:26:08.951Z,40.07
2018-09-18T18:28:37.077Z,40.58
2018-09-18T18:31:09.533Z,41.86
2018-09-18T18:33:37.998Z,42.14
2018-09-18T18:36:06.207Z,42.30
2018-09-18T18:38:34.075Z,41.90
2018-09-18T18:41:01.956Z,42.20
2018-09-18T18:43:29.723Z,41.98
2018-09-18T18:45:57.505Z,41.92
2018-09-18T18:48:25.729Z,41.45
2018-09-18T18:50:54.606Z,41.38
2018-09-18T18:53:24.698Z,42.82
2018-09-18T18:55:52.564Z,43.89
2018-09-18T18:58:20.440Z,43.78
2018-09-18T19:00:48.451Z,43.44
2018-09-18T19:03:16.290Z,44.80
2018-09-18T19:05:44.186Z,44.63
2018-09-18T19:08:12.960Z,44.64
2018-09-18T19:10:40.845Z,43.52
2018-09-18T19:13:09.346Z,45.33
2018-09-18T19:15:37.184Z,44.10
2018-09-18T19:18:05.466Z,44.33
2018-09-18T19:20:33.375Z,43.51
2018-09-18T19:23:01.222Z,43.68
2018-09-18T19:25:29.102Z,44.08
2018-09-18T19:27:59.412Z,43.24
2018-09-18T19:30:29.563Z,44.12
2018-09-18T19:33:00.167Z,45.05
2018-09-18T19:35:30.939Z,44.91
2018-09-18T19:38:01.292Z,44.78
2018-09-18T19:40:35.902Z,43.62
2018-09-18T19:43:04.605Z,44.53
2018-09-18T19:45:35.684Z,43.99
2018-09-18T19:48:06.324Z,43.94
2018-09-18T19:50:39.959Z,44.05
2018-09-18T19:53:10.447Z,43.18
2018-09-18T19:55:41.792Z,46.09
2018-09-18T19:58:13.326Z,44.59
2018-09-18T20:00:41.429Z,46.42
2018-09-18T20:03:09.518Z,48.59
2018-09-18T20:05:39.110Z,48.13
2018-09-18T20:08:13.971Z,48.17
2018-09-18T20:10:43.080Z,48.69
2018-09-18T20:13:10.847Z,48.96
2018-09-18T20:15:38.638Z,48.98
2018-09-18T20:18:06.378Z,49.36
2018-09-18T20:20:34.161Z,49.60
2018-09-18T20:23:02.130Z,50.57
2018-09-18T20:25:29.924Z,50.68
2018-09-18T20:27:57.781Z,49.93
2018-09-18T20:30:25.603Z,50.20
2018-09-18T20:32:53.411Z,49.76
2018-09-18T20:35:21.193Z,50.31
2018-09-18T20:37:49.048Z,50.46
2018-09-18T20:40:16.863Z,49.29
2018-09-18T20:42:44.660Z,49.25
2018-09-18T20:45:12.434Z,48.37
2018-09-18T20:47:40.334Z,48.12
2018-09-18T20:50:08.157Z,47.73
2018-09-18T20:52:35.928Z,47.42
2018-09-18T20:55:03.834Z,48.03
2018-09-18T20:57:31.635Z,49.01
2018-09-18T20:59:59.456Z,48.92
2018-09-18T21:02:27.268Z,48.16
2018-09-18T21:04:55.274Z,48.12
2018-09-18T21:07:23.051Z,47.11
2018-09-18T21:09:50.904Z,46.18
2018-09-18T21:12:18.758Z,46.75
2018-09-18T21:14:46.484Z,47.88
2018-09-18T21:17:14.256Z,48.49
2018-09-18T21:19:42.050Z,49.45
2018-09-18T21:22:09.783Z,50.58
2018-09-18T21:24:37.616Z,49.47
2018-09-18T21:27:05.843Z,47.95
2018-09-18T21:29:33.651Z,47.70
2018-09-18T21:32:01.559Z,52.81
2018-09-18T21:34:29.315Z,54.27
2018-09-18T21:36:57.076Z,56.81
2018-09-18T21:39:24.935Z,57.29
2018-09-18T21:41:52.728Z,56.73
2018-09-18T21:44:20.442Z,56.55
2018-09-18T21:46:48.290Z,55.60
2018-09-18T21:49:16.071Z,56.28
2018-09-18T21:51:43.823Z,56.75
2018-09-18T21:54:11.717Z,59.06
2018-09-18T21:56:39.514Z,59.09
2018-09-18T21:59:07.408Z,56.82
2018-09-18T22:01:35.216Z,58.36
2018-09-18T22:04:03.039Z,58.46
2018-09-18T22:06:30.818Z,59.04
2018-09-18T22:08:58.553Z,59.09
2018-09-18T22:11:26.342Z,56.71
2018-09-18T22:13:54.102Z,54.48
2018-09-18T22:16:21.912Z,52.35
2018-09-18T22:18:49.737Z,51.90
2018-09-18T22:21:17.551Z,51.46
2018-09-18T22:23:45.372Z,51.31
2018-09-18T22:26:13.229Z,54.51
2018-09-18T22:28:40.951Z,54.74
2018-09-18T22:31:08.807Z,52.74
2018-09-18T22:33:36.547Z,52.47
2018-09-18T22:36:04.331Z,52.98
2018-09-18T22:38:32.119Z,52.22
2018-09-18T22:40:59.861Z,53.49
2018-09-18T22:43:27.639Z,52.68
2018-09-18T22:45:55.423Z,52.57
2018-09-18T22:48:23.204Z,53.20
2018-09-18T22:50:50.916Z,60.65
2018-09-18T22:53:18.735Z,61.64
2018-09-18T22:55:46.540Z,62.25
2018-09-18T22:58:14.280Z,60.92
2018-09-18T23:00:42.084Z,61.01
2018-09-18T23:03:09.874Z,61.05
2018-09-18T23:05:37.594Z,61.13
2018-09-18T23:08:05.615Z,62.29
2018-09-18T23:10:33.387Z,62.29
2018-09-18T23:13:01.170Z,61.51
2018-09-18T23:15:28.979Z,61.46
2018-09-18T23:17:56.768Z,61.35
2018-09-18T23:20:24.509Z,64.24
2018-09-18T23:22:52.339Z,63.10
2018-09-18T23:25:20.079Z,64.01
2018-09-18T23:27:47.833Z,63.99
2018-09-18T23:30:15.657Z,63.55
2018-09-18T23:32:43.449Z,63.41
2018-09-18T23:35:11.226Z,65.58
2018-09-18T23:37:38.918Z,65.68
2018-09-18T23:40:06.699Z,63.10
2018-09-18T23:42:38.041Z,64.50
2018-09-18T23:45:06.021Z,65.35
2018-09-18T23:47:33.900Z,66.42
2018-09-18T23:50:01.685Z,65.33
2018-09-18T23:52:29.451Z,65.07
2018-09-18T23:54:57.208Z,64.30
2018-09-18T23:57:24.935Z,63.19
2018-09-18T23:59:52.740Z,64.64
